Portada
METAR-TAF:

METAR-TAF

Aeroports :

Kingston, Jamaica

latitud: 17-56N, longitud: 076-47W, altitud: 3 m

Observació

L'informe es va fer fa 51 minuts, a les 04:00 UTC
Vent 6 kt del Nord/Nord-Est
Temperatura 28°C
Humitat 70%
Pressió 1015 hPa
Visibilitat 10 km o més
Escasses núvols a una alçada de 2200 ft

METAR: MKJP 080400Z 02006KT 9999 FEW022 28/22 Q1015

Hora: 23:51 (04:51 UTC)

Pronòstic

L'informe es va fer fa 5 hores i 36 minuts, a les 23:15 UTC
Pronòstic vàlid del 08 a les 00 UTC al 08 a les 24 UTC
Vent 12 kt del Sud
Visibilitat 10 km o més
Escasses núvols a una alçada de 2200 ft
Evolucionant progressivament
l' 08 a les 01 UTC al 08 a les 03 UTC
Vent 8 kt del Nord
Evolucionant progressivament
l' 08 a les 15 UTC al 08 a les 17 UTC
Vent 15 kt del Sud

TAF: MKJP 072315Z 0800/0824 18012KT 9999 FEW022 BECMG 0801/0803 36008KT BECMG 0815/0817 18015KT

Observacions i pronòstics meteorològics de més de 4000 aeroports (METAR i TAF).

Les estacions disponibles són els punts grocs i vermells al mapa.

Posi el ratolí al punt desitjat per veure el nom de l'estació.

Feu clic per veure les observacions i els pronòstics meteorològics.

Per canviar el mapa: feu clic els botons verds amb una creu de color negre per apropar; al botó verd amb un guió per allunyar la imatge; o en les fletxes verdes per a mapes adjacents.


METAR-TAF: